Time;durP1;ratioP1;P1;durP2;ratioP2;P2;SDS_P1;SDS_P2;PMS_P1;PMS_P2;Temp;Humidity;BMP_temperature;BMP_pressure;BME280_temperature;BME280_humidity;BME280_pressure;Samples;Min_cycle;Max_cycle;Signal;HPM_P1;HPM_P2
2023/07/05 00:00:20;;;;;;;15.63;10.35;;;;;;;16.83;70.10;100094.63;687401;28;1973;-75
2023/07/05 00:00:42;;;;;;;14.70;10.07;;;;;;;16.91;70.03;100105.97;685335;28;1949;-76
2023/07/05 00:01:02;;;;;;;14.03;9.87;;;;;;;16.91;69.89;100103.34;682765;29;1001;-76
2023/07/05 00:01:23;;;;;;;14.45;9.90;;;;;;;16.89;70.05;100099.00;687521;28;1599;-76
2023/07/05 00:01:44;;;;;;;16.33;9.68;;;;;;;16.90;70.00;100100.72;690889;28;775;-76
2023/07/05 00:02:05;;;;;;;17.83;9.68;;;;;;;16.91;69.96;100100.69;693349;28;1349;-77
2023/07/05 00:02:26;;;;;;;17.30;9.80;;;;;;;16.97;69.61;100095.38;692931;28;1767;-77
2023/07/05 00:02:50;;;;;;;15.60;10.10;;;;;;;16.99;69.66;100093.59;688150;28;1470;-76
2023/07/05 00:03:11;;;;;;;14.90;10.10;;;;;;;17.03;69.13;100102.34;685164;28;1073;-77
2023/07/05 00:03:32;;;;;;;14.98;10.25;;;;;;;17.03;69.19;100098.84;693113;28;1782;-76
2023/07/05 00:03:52;;;;;;;16.80;10.33;;;;;;;17.04;69.36;100097.97;696383;28;723;-77
2023/07/05 00:04:13;;;;;;;17.27;10.20;;;;;;;17.04;69.23;100096.22;695854;28;1895;-77
2023/07/05 00:04:35;;;;;;;16.80;9.73;;;;;;;16.98;69.27;100091.84;693003;28;1223;-77
2023/07/05 00:04:55;;;;;;;15.93;9.77;;;;;;;17.07;69.20;100101.44;693179;28;1947;-76
2023/07/05 00:05:16;;;;;;;15.25;9.85;;;;;;;17.09;69.05;100101.44;693222;28;1173;-76
2023/07/05 00:05:37;;;;;;;16.23;10.30;;;;;;;17.06;69.05;100101.44;697363;28;1169;-77
2023/07/05 00:06:03;;;;;;;15.77;10.35;;;;;;;17.06;69.16;100090.91;696303;28;998;-77
2023/07/05 00:06:23;;;;;;;15.52;10.23;;;;;;;17.07;69.18;100108.47;695879;28;1362;-76
2023/07/05 00:06:44;;;;;;;15.87;10.30;;;;;;;17.07;68.93;100097.91;692457;28;1068;-77
2023/07/05 00:07:05;;;;;;;15.57;9.70;;;;;;;17.05;69.24;100100.59;687936;28;1132;-77
2023/07/05 00:07:25;;;;;;;16.98;9.57;;;;;;;17.05;69.12;100099.72;689225;28;1075;-76
2023/07/05 00:07:47;;;;;;;17.90;9.30;;;;;;;17.07;69.14;100096.16;687749;28;1860;-76
2023/07/05 00:08:08;;;;;;;18.25;9.82;;;;;;;17.09;68.94;100101.44;687680;28;1560;-75
2023/07/05 00:08:28;;;;;;;18.25;10.05;;;;;;;17.07;69.04;100096.16;691565;28;1229;-77
2023/07/05 00:08:50;;;;;;;17.57;9.90;;;;;;;17.06;69.06;100096.19;695859;28;1073;-76
2023/07/05 00:09:11;;;;;;;15.40;9.45;;;;;;;17.08;69.02;100100.56;693206;28;1113;-76
2023/07/05 00:09:32;;;;;;;13.00;9.60;;;;;;;17.06;68.91;100097.06;691321;28;1221;-76
2023/07/05 00:09:52;;;;;;;13.60;9.68;;;;;;;17.06;68.98;100093.53;693121;28;1312;-77
2023/07/05 00:10:14;;;;;;;14.90;9.80;;;;;;;17.06;69.00;100093.53;685203;28;1053;-77
2023/07/05 00:10:36;;;;;;;15.07;9.70;;;;;;;17.06;68.93;100097.06;687448;28;1096;-76
2023/07/05 00:11:08;;;;;;;13.50;9.50;;;;;;;17.09;68.89;100099.66;688237;28;1005;-76
2023/07/05 00:11:29;;;;;;;13.75;9.63;;;;;;;17.06;69.17;100091.78;692596;28;1087;-76
2023/07/05 00:11:50;;;;;;;14.90;9.90;;;;;;;17.07;69.11;100100.56;693363;28;1414;-76
2023/07/05 00:12:10;;;;;;;15.23;9.70;;;;;;;17.14;69.08;100102.25;690230;28;1304;-76
2023/07/05 00:12:31;;;;;;;15.88;9.70;;;;;;;17.15;69.02;100103.13;690624;28;1110;-76
2023/07/05 00:12:52;;;;;;;18.20;9.83;;;;;;;17.08;69.04;100094.44;691106;28;1051;-76
2023/07/05 00:13:12;;;;;;;19.52;10.40;;;;;;;17.10;69.04;100090.00;692882;28;1125;-77
2023/07/05 00:13:34;;;;;;;20.02;10.57;;;;;;;17.10;69.29;100097.91;693438;28;1179;-77
2023/07/05 00:13:55;;;;;;;15.82;10.32;;;;;;;17.13;69.19;100106.66;690349;28;1011;-76
2023/07/05 00:14:16;;;;;;;15.95;9.98;;;;;;;17.12;68.87;100096.13;687482;28;1612;-76
2023/07/05 00:14:37;;;;;;;17.27;10.35;;;;;;;17.13;68.97;100097.88;687988;28;1121;-76
2023/07/05 00:14:58;;;;;;;18.20;10.50;;;;;;;17.12;68.77;100096.13;690503;28;1654;-76
2023/07/05 00:15:18;;;;;;;15.10;9.90;;;;;;;17.13;68.94;100098.75;690610;28;1150;-76
2023/07/05 00:15:47;;;;;;;13.75;9.50;;;;;;;17.20;69.16;100109.25;689901;28;2093;-77
2023/07/05 00:16:09;;;;;;;14.35;9.40;;;;;;;17.10;69.13;100087.38;690366;28;1185;-76
2023/07/05 00:16:30;;;;;;;15.50;10.00;;;;;;;17.10;69.20;100090.84;692449;28;1268;-76
2023/07/05 00:16:51;;;;;;;15.93;9.85;;;;;;;17.10;69.01;100095.28;690498;28;1058;-76
2023/07/05 00:17:12;;;;;;;18.30;10.53;;;;;;;17.13;69.11;100092.59;687913;28;1062;-76
2023/07/05 00:17:34;;;;;;;18.27;10.20;;;;;;;17.16;69.17;100096.97;689495;28;2008;-77
2023/07/05 00:17:55;;;;;;;16.20;10.07;;;;;;;17.20;69.10;100112.75;690288;28;898;-76
2023/07/05 00:18:15;;;;;;;13.68;9.90;;;;;;;17.20;69.11;100103.97;687727;28;1530;-77
2023/07/05 00:18:36;;;;;;;15.27;10.02;;;;;;;17.20;69.16;100110.09;691210;28;1099;-76
2023/07/05 00:18:57;;;;;;;16.63;10.20;;;;;;;17.11;69.16;100097.03;690744;28;1128;-76
2023/07/05 00:19:18;;;;;;;17.42;10.23;;;;;;;17.20;69.13;100111.88;690799;28;1106;-78
2023/07/05 00:19:39;;;;;;;15.27;9.80;;;;;;;17.17;69.19;100102.22;693994;28;822;-77
2023/07/05 00:20:02;;;;;;;14.57;10.10;;;;;;;17.17;68.86;100104.88;695528;28;1987;-77
2023/07/05 00:20:23;;;;;;;15.00;9.75;;;;;;;17.10;68.95;100090.84;689836;28;1787;-76
2023/07/05 00:20:43;;;;;;;15.02;9.82;;;;;;;17.12;68.98;100094.38;688858;28;1534;-77
2023/07/05 00:21:06;;;;;;;15.20;9.70;;;;;;;17.07;68.81;100083.00;687769;28;1121;-76
2023/07/05 00:21:27;;;;;;;17.63;10.10;;;;;;;17.12;68.99;100094.38;689467;28;1265;-77
2023/07/05 00:21:48;;;;;;;17.67;9.90;;;;;;;17.17;69.07;100104.88;690056;28;844;-76
2023/07/05 00:22:08;;;;;;;16.40;9.93;;;;;;;17.10;69.23;100100.53;692855;28;1574;-77
2023/07/05 00:22:29;;;;;;;14.90;9.85;;;;;;;17.09;69.40;100090.91;691203;28;1365;-76
2023/07/05 00:22:51;;;;;;;15.45;10.10;;;;;;;17.22;69.34;100112.75;691511;28;831;-76
2023/07/05 00:23:12;;;;;;;15.45;9.85;;;;;;;17.13;69.17;100093.47;690073;28;1951;-76
2023/07/05 00:23:35;;;;;;;13.65;9.48;;;;;;;17.26;69.25;100115.34;690247;28;1096;-77
2023/07/05 00:23:55;;;;;;;15.15;9.93;;;;;;;17.21;69.29;100100.44;690693;28;1260;-77
2023/07/05 00:24:16;;;;;;;15.80;9.90;;;;;;;17.20;69.50;100104.81;693222;28;1079;-76
2023/07/05 00:24:37;;;;;;;15.45;9.98;;;;;;;17.18;69.73;100106.63;693476;28;870;-76
2023/07/05 00:24:58;;;;;;;14.10;9.50;;;;;;;17.14;70.00;100094.34;693425;28;1082;-77
2023/07/05 00:25:19;;;;;;;15.45;9.65;;;;;;;17.10;69.99;100104.03;688448;28;1230;-76
2023/07/05 00:25:40;;;;;;;16.45;9.90;;;;;;;17.04;70.35;100090.94;690226;28;1264;-76
2023/07/05 00:26:01;;;;;;;16.90;10.10;;;;;;;17.13;70.54;100097.88;693491;28;1396;-77
2023/07/05 00:26:24;;;;;;;15.70;10.60;;;;;;;17.11;70.56;100100.50;689543;28;1740;-77
2023/07/05 00:26:45;;;;;;;15.90;10.50;;;;;;;17.12;70.69;100099.66;690739;28;1351;-77
2023/07/05 00:27:06;;;;;;;17.07;10.60;;;;;;;17.11;70.90;100099.66;693324;28;1266;-76
2023/07/05 00:27:28;;;;;;;16.95;10.50;;;;;;;17.07;70.93;100095.28;691899;28;2022;-76
2023/07/05 00:27:49;;;;;;;16.25;10.32;;;;;;;17.12;71.27;100102.28;688172;28;901;-77
2023/07/05 00:28:12;;;;;;;16.08;10.00;;;;;;;17.12;71.22;100102.28;690469;28;1128;-77
2023/07/05 00:28:35;;;;;;;16.13;9.73;;;;;;;17.11;71.47;100095.25;690156;28;1451;-76
2023/07/05 00:28:56;;;;;;;15.98;9.80;;;;;;;17.14;71.69;100110.16;688227;28;922;-76
2023/07/05 00:29:17;;;;;;;14.80;9.90;;;;;;;17.11;71.49;100110.19;684819;28;1254;-77
2023/07/05 00:29:38;;;;;;;16.50;9.85;;;;;;;17.09;71.69;100101.44;685134;28;1344;-76
2023/07/05 00:29:59;;;;;;;16.25;9.40;;;;;;;17.07;71.82;100097.91;685287;28;936;-76
2023/07/05 00:30:20;;;;;;;15.77;9.30;;;;;;;17.06;71.98;100106.72;685387;28;1213;-77
2023/07/05 00:30:44;;;;;;;13.60;9.47;;;;;;;17.01;71.81;100092.72;692709;28;1481;-77
2023/07/05 00:31:05;;;;;;;14.80;9.80;;;;;;;16.94;72.17;100084.00;693182;28;1077;-76
2023/07/05 00:31:26;;;;;;;15.82;9.77;;;;;;;17.00;71.93;100094.47;691009;28;1186;-77
2023/07/05 00:31:47;;;;;;;16.00;9.75;;;;;;;17.03;71.91;100112.03;690356;28;1303;-76
2023/07/05 00:32:07;;;;;;;15.90;10.00;;;;;;;16.97;72.07;100102.44;690475;28;1456;-76
2023/07/05 00:32:28;;;;;;;16.88;10.65;;;;;;;16.92;72.03;100091.94;693900;28;1225;-76
2023/07/05 00:32:49;;;;;;;16.60;10.60;;;;;;;16.95;71.96;100093.63;691213;28;1591;-77
2023/07/05 00:33:10;;;;;;;15.00;10.13;;;;;;;16.95;72.01;100094.53;690266;28;1354;-77
2023/07/05 00:33:31;;;;;;;14.00;9.50;;;;;;;16.96;71.94;100091.00;687227;28;1212;-76
2023/07/05 00:33:51;;;;;;;13.95;9.30;;;;;;;17.07;71.74;100109.34;686200;28;883;-76
2023/07/05 00:34:12;;;;;;;14.33;9.30;;;;;;;16.96;71.71;100085.72;687630;28;1132;-76
2023/07/05 00:34:33;;;;;;;14.20;9.68;;;;;;;17.06;71.75;100101.44;694806;28;1543;-76
2023/07/05 00:34:53;;;;;;;14.50;9.27;;;;;;;16.98;71.97;100091.84;695039;28;1406;-77
2023/07/05 00:35:14;;;;;;;14.80;9.70;;;;;;;17.03;71.95;100097.06;695809;28;1931;-77
2023/07/05 00:35:34;;;;;;;15.50;9.30;;;;;;;17.04;72.00;100097.97;695196;28;1337;-76
2023/07/05 00:35:55;;;;;;;14.70;9.80;;;;;;;17.07;71.82;100097.91;690564;28;1361;-76
2023/07/05 00:36:16;;;;;;;13.95;9.60;;;;;;;17.02;71.80;100086.56;687664;28;1024;-76
2023/07/05 00:36:36;;;;;;;14.43;9.80;;;;;;;17.07;71.69;100098.81;685287;28;1087;-75
2023/07/05 00:36:57;;;;;;;13.82;9.35;;;;;;;17.09;71.69;100102.28;682478;28;1944;-76
2023/07/05 00:37:18;;;;;;;14.10;9.10;;;;;;;17.05;71.75;100086.53;690386;28;1147;-76
2023/07/05 00:37:38;;;;;;;12.52;9.00;;;;;;;17.09;71.76;100093.53;693607;28;723;-76
2023/07/05 00:37:59;;;;;;;13.07;9.47;;;;;;;17.08;71.73;100092.66;690400;28;1061;-76
2023/07/05 00:38:22;;;;;;;16.02;9.88;;;;;;;17.06;71.54;100096.19;685275;28;1306;-76
2023/07/05 00:38:43;;;;;;;16.35;9.55;;;;;;;17.09;71.86;100093.53;688024;28;1972;-76
2023/07/05 00:39:03;;;;;;;15.90;9.32;;;;;;;17.13;71.84;100103.13;690545;28;1295;-77
2023/07/05 00:39:26;;;;;;;14.13;9.20;;;;;;;17.12;71.79;100096.13;687748;28;1226;-77
2023/07/05 00:39:47;;;;;;;13.35;9.05;;;;;;;17.09;71.75;100083.00;685473;28;1138;-76
2023/07/05 00:40:08;;;;;;;13.50;9.13;;;;;;;17.07;71.48;100082.09;687598;28;1349;-77
2023/07/05 00:40:29;;;;;;;15.05;8.80;;;;;;;17.15;71.34;100098.72;690007;28;1562;-76
2023/07/05 00:40:51;;;;;;;16.25;8.93;;;;;;;17.12;71.29;100085.59;690743;28;814;-77
2023/07/05 00:41:11;;;;;;;16.40;8.50;;;;;;;17.15;71.30;100084.69;691962;28;1098;-76
2023/07/05 00:41:32;;;;;;;15.45;8.35;;;;;;;17.18;71.11;100082.88;687401;28;1155;-76
2023/07/05 00:41:53;;;;;;;15.13;8.70;;;;;;;17.14;71.20;100083.78;688596;28;925;-76
2023/07/05 00:42:14;;;;;;;14.70;8.80;;;;;;;17.14;71.27;100075.88;687751;28;1158;-76
2023/07/05 00:42:35;;;;;;;13.20;9.13;;;;;;;17.13;71.11;100080.31;687706;28;1632;-78
2023/07/05 00:42:55;;;;;;;11.75;9.10;;;;;;;17.13;71.38;100082.06;682800;29;1084;-77
2023/07/05 00:43:17;;;;;;;12.65;9.23;;;;;;;17.16;71.55;100079.41;684954;28;1098;-77
2023/07/05 00:43:38;;;;;;;12.93;9.35;;;;;;;17.16;71.92;100086.44;688009;28;830;-76
2023/07/05 00:43:59;;;;;;;13.77;9.20;;;;;;;17.16;71.91;100081.16;689510;28;1124;-77
2023/07/05 00:44:21;;;;;;;13.65;8.70;;;;;;;17.13;72.24;100082.94;691985;28;1145;-77
2023/07/05 00:45:11;;;;;;;15.20;8.73;;;;;;;17.20;72.55;100089.00;691843;28;1792;-77
2023/07/05 00:46:02;;;;;;;14.18;9.00;;;;;;;17.18;73.10;100090.78;693797;28;1106;-77
2023/07/05 00:46:26;;;;;;;15.80;9.00;;;;;;;17.11;73.31;100075.94;688746;28;1303;-76
2023/07/05 00:46:51;;;;;;;16.00;9.13;;;;;;;17.09;73.77;100073.28;687993;28;816;-78
2023/07/05 00:47:25;;;;;;;16.00;9.40;;;;;;;17.11;73.84;100074.16;687787;28;1146;-77
2023/07/05 00:47:46;;;;;;;14.90;9.30;;;;;;;17.15;73.97;100076.78;687557;28;1361;-77
2023/07/05 00:48:13;;;;;;;14.82;9.00;;;;;;;17.12;74.18;100075.03;686693;28;1353;-76
2023/07/05 00:48:41;;;;;;;15.38;9.15;;;;;;;17.04;73.95;100064.59;691174;28;1179;-76
2023/07/05 00:49:06;;;;;;;15.40;9.40;;;;;;;17.09;74.18;100068.03;689682;28;1484;-76
2023/07/05 00:49:29;;;;;;;17.13;9.20;;;;;;;17.09;74.29;100064.53;686507;28;1329;-77
2023/07/05 00:49:51;;;;;;;15.45;8.73;;;;;;;17.12;74.50;100070.66;688977;28;796;-76
2023/07/05 00:50:15;;;;;;;12.55;8.50;;;;;;;16.99;74.68;100051.41;687488;28;1945;-77
2023/07/05 00:50:40;;;;;;;13.07;8.38;;;;;;;16.99;74.73;100047.94;687959;28;1194;-77
2023/07/05 00:51:06;;;;;;;14.10;9.15;;;;;;;17.01;74.73;100038.25;690128;28;1134;-77
2023/07/05 00:51:47;;;;;;;15.60;9.15;;;;;;;17.05;74.74;100047.88;690364;28;1278;-76
2023/07/05 00:52:15;;;;;;;14.48;8.52;;;;;;;17.09;74.81;100054.00;690383;28;1137;-77
2023/07/05 00:52:36;;;;;;;12.20;8.45;;;;;;;17.05;74.84;100047.00;689987;28;1475;-76
2023/07/05 00:52:58;;;;;;;12.50;8.20;;;;;;;17.03;74.71;100044.34;693760;28;1185;-77
2023/07/05 00:53:20;;;;;;;12.52;8.40;;;;;;;17.09;74.79;100048.72;688807;28;1936;-77
2023/07/05 00:53:41;;;;;;;12.40;8.80;;;;;;;17.11;74.82;100053.06;690830;28;869;-77
2023/07/05 00:54:05;;;;;;;12.57;8.80;;;;;;;17.12;74.92;100053.94;687206;28;1212;-77
2023/07/05 00:54:30;;;;;;;12.25;8.43;;;;;;;17.13;74.75;100045.16;684922;28;1110;-77
2023/07/05 00:54:56;;;;;;;11.40;8.20;;;;;;;17.08;74.93;100046.97;690818;28;840;-77
2023/07/05 00:55:18;;;;;;;11.15;8.23;;;;;;;17.12;75.02;100051.31;688474;28;1960;-77
2023/07/05 00:55:44;;;;;;;11.45;8.07;;;;;;;17.12;75.13;100059.22;689957;28;1120;-78
2023/07/05 00:56:11;;;;;;;10.90;7.50;;;;;;;17.13;74.90;100047.78;687697;28;1345;-76
2023/07/05 00:56:38;;;;;;;11.35;7.40;;;;;;;17.12;74.93;100046.03;689475;28;1102;-77
2023/07/05 00:57:07;;;;;;;10.88;7.50;;;;;;;17.11;74.38;100041.66;689889;28;1001;-76
2023/07/05 00:57:33;;;;;;;10.60;7.20;;;;;;;17.14;74.60;100046.88;691209;28;1137;-77
2023/07/05 00:57:55;;;;;;;11.55;7.35;;;;;;;17.13;74.59;100048.66;687978;28;819;-77
2023/07/05 00:58:17;;;;;;;11.30;7.70;;;;;;;17.15;74.52;100053.91;690453;28;1045;-77
2023/07/05 00:58:40;;;;;;;11.02;7.95;;;;;;;17.11;74.47;100036.38;689972;28;1299;-76
2023/07/05 00:59:02;;;;;;;10.90;7.97;;;;;;;17.17;74.71;100041.59;687817;28;1142;-77
2023/07/05 00:59:29;;;;;;;11.15;7.75;;;;;;;17.19;74.78;100053.00;683274;28;1091;-76
2023/07/05 01:00:00;;;;;;;11.63;7.72;;;;;;;17.10;74.97;100035.50;686920;28;915;-77
2023/07/05 01:00:22;;;;;;;11.75;7.30;;;;;;;17.10;74.95;100039.91;685780;28;1261;-77
2023/07/05 01:00:43;;;;;;;12.30;7.20;;;;;;;17.12;74.89;100032.84;690018;28;1388;-77
2023/07/05 01:01:04;;;;;;;12.10;7.07;;;;;;;17.15;74.73;100045.13;692965;28;979;-77
2023/07/05 01:01:27;;;;;;;11.52;7.10;;;;;;;17.19;74.60;100045.09;688122;28;1158;-77
2023/07/05 01:01:48;;;;;;;9.77;7.10;;;;;;;17.16;74.56;100045.13;690810;28;791;-77
2023/07/05 01:02:09;;;;;;;9.15;6.90;;;;;;;17.24;74.53;100048.59;688142;28;1219;-77
2023/07/05 01:02:31;;;;;;;10.10;7.00;;;;;;;17.15;74.38;100038.09;690554;28;1127;-77
2023/07/05 01:02:56;;;;;;;10.65;7.05;;;;;;;17.21;74.49;100045.97;690819;28;1939;-77
2023/07/05 01:03:22;;;;;;;10.38;7.20;;;;;;;17.20;74.60;100043.34;685080;28;1136;-77
2023/07/05 01:03:48;;;;;;;9.40;6.90;;;;;;;17.23;74.54;100048.59;688058;28;1119;-76
2023/07/05 01:04:10;;;;;;;9.05;6.70;;;;;;;17.20;74.50;100041.56;692486;28;1011;-77
2023/07/05 01:04:33;;;;;;;9.40;6.88;;;;;;;17.26;74.60;100051.19;690587;28;1111;-76
2023/07/05 01:04:54;;;;;;;10.35;7.20;;;;;;;17.23;74.55;100046.81;690724;28;857;-77
2023/07/05 01:05:17;;;;;;;10.80;7.20;;;;;;;17.26;74.69;100057.34;690033;28;1689;-77
2023/07/05 01:05:38;;;;;;;10.20;6.90;;;;;;;17.17;74.93;100041.59;687112;28;870;-76
2023/07/05 01:05:59;;;;;;;11.52;6.57;;;;;;;17.21;74.80;100048.59;688933;28;1714;-76
2023/07/05 01:06:23;;;;;;;11.60;6.70;;;;;;;17.24;75.16;100055.59;690051;28;1376;-76
2023/07/05 01:06:44;;;;;;;12.30;6.70;;;;;;;17.16;75.37;100039.84;685924;28;1102;-76
2023/07/05 01:07:05;;;;;;;11.43;6.95;;;;;;;17.13;75.46;100039.88;687492;28;1066;-77
2023/07/05 01:07:26;;;;;;;12.00;7.20;;;;;;;17.16;75.82;100045.13;684913;28;1590;-76
2023/07/05 01:07:47;;;;;;;11.82;7.60;;;;;;;17.14;75.93;100044.25;690504;28;1198;-76
2023/07/05 01:08:08;;;;;;;11.57;8.00;;;;;;;17.09;75.98;100039.03;690516;28;1044;-77
2023/07/05 01:08:28;;;;;;;12.98;7.90;;;;;;;17.08;76.12;100039.06;688731;28;1277;-76
2023/07/05 01:08:51;;;;;;;13.50;7.87;;;;;;;17.06;76.45;100033.81;693606;28;771;-76
2023/07/05 01:09:11;;;;;;;14.93;7.70;;;;;;;17.03;76.47;100030.31;687476;28;1430;-76
2023/07/05 01:09:32;;;;;;;16.50;7.65;;;;;;;17.12;76.93;100046.94;687477;28;1193;-77
2023/07/05 01:09:55;;;;;;;16.13;7.60;;;;;;;17.05;77.04;100039.97;685213;28;1225;-77
2023/07/05 01:10:19;;;;;;;13.68;7.30;;;;;;;17.09;76.86;100046.09;689773;28;1039;-76
2023/07/05 01:10:47;;;;;;;11.27;7.63;;;;;;;17.03;77.34;100032.97;692782;28;1396;-77
2023/07/05 01:11:49;;;;;;;11.73;7.18;;;;;;;17.10;77.44;100051.31;695866;28;1125;-77
2023/07/05 01:12:16;;;;;;;9.45;6.35;;;;;;;16.99;77.55;100038.25;693989;28;1109;-77
2023/07/05 01:12:58;;;;;;;10.32;6.70;;;;;;;17.07;77.85;100056.63;690721;28;758;-78
2023/07/05 01:13:30;;;;;;;11.13;6.40;;;;;;;17.05;77.82;100049.63;692897;28;1228;-77
2023/07/05 01:14:21;;;;;;;9.85;6.00;;;;;;;17.10;77.83;100050.47;688919;28;843;-77
2023/07/05 01:14:58;;;;;;;8.80;6.50;;;;;;;17.08;77.73;100052.25;696237;28;869;-76
2023/07/05 01:15:31;;;;;;;10.27;6.32;;;;;;;16.97;77.70;100045.31;691777;28;1585;-76
2023/07/05 01:15:58;;;;;;;10.55;6.70;;;;;;;16.97;77.94;100045.31;690051;28;838;-77
2023/07/05 01:16:37;;;;;;;10.30;6.75;;;;;;;17.07;78.15;100066.28;688352;28;1148;-77
2023/07/05 01:17:06;;;;;;;9.25;7.10;;;;;;;17.05;78.34;100062.81;690680;28;1284;-77
2023/07/05 01:17:35;;;;;;;9.95;7.35;;;;;;;17.03;78.65;100072.50;690671;28;1262;-77
2023/07/05 01:18:16;;;;;;;10.18;7.10;;;;;;;16.92;79.06;100056.78;693442;28;891;-78
2023/07/05 01:18:54;;;;;;;9.70;6.72;;;;;;;16.91;79.04;100053.25;687472;28;1372;-79
2023/07/05 01:19:37;;;;;;;11.07;7.25;;;;;;;16.93;79.41;100063.81;687399;28;1452;-78
2023/07/05 01:19:58;;;;;;;12.50;7.40;;;;;;;16.96;79.71;100062.00;688084;28;1348;-79
2023/07/05 01:20:34;;;;;;;12.52;7.38;;;;;;;16.90;79.79;100046.25;690034;28;1491;-80
2023/07/05 01:21:04;;;;;;;12.80;7.20;;;;;;;16.88;80.11;100050.66;693464;28;896;-80
2023/07/05 01:21:31;;;;;;;13.48;7.78;;;;;;;16.88;80.42;100055.94;692073;28;1103;-79
2023/07/05 01:22:31;;;;;;;14.90;8.10;;;;;;;16.77;81.05;100037.59;687856;28;1063;-79
2023/07/05 01:23:07;;;;;;;12.13;7.70;;;;;;;16.78;81.75;100035.84;690700;28;841;-78
2023/07/05 01:24:00;;;;;;;11.60;7.40;;;;;;;16.75;82.44;100028.84;694178;28;1415;-78
2023/07/05 01:24:39;;;;;;;13.35;8.65;;;;;;;16.77;82.54;100036.75;689760;28;1508;-77
2023/07/05 01:25:17;;;;;;;14.27;8.73;;;;;;;16.71;83.05;100038.53;684841;28;1075;-78
2023/07/05 01:25:58;;;;;;;13.13;8.35;;;;;;;16.70;83.40;100036.78;689879;28;1374;-78
2023/07/05 01:26:51;;;;;;;13.43;7.95;;;;;;;16.61;84.12;100015.81;690074;28;1948;-78
2023/07/05 01:27:11;;;;;;;16.08;8.10;;;;;;;16.71;84.32;100030.63;689970;28;1365;-79
2023/07/05 01:27:52;;;;;;;14.38;7.88;;;;;;;16.68;84.56;100021.88;688423;28;1232;-78
2023/07/05 01:28:40;;;;;;;11.25;7.90;;;;;;;16.70;84.62;100026.25;691977;28;1104;-78
2023/07/05 01:29:38;;;;;;;11.55;7.90;;;;;;;16.69;85.12;100023.63;692700;28;1819;-78
2023/07/05 01:30:26;;;;;;;12.60;7.80;;;;;;;16.61;85.31;100002.63;695891;28;1007;-78
2023/07/05 01:31:05;;;;;;;10.80;7.60;;;;;;;16.69;85.69;100023.63;693377;28;887;-78
2023/07/05 01:31:54;;;;;;;12.05;7.60;;;;;;;16.67;85.78;100017.50;689191;28;1290;-78
2023/07/05 01:32:34;;;;;;;11.80;6.97;;;;;;;16.68;86.12;100012.22;687337;28;1546;-78
2023/07/05 01:32:59;;;;;;;10.50;6.80;;;;;;;16.63;86.30;100003.50;688087;28;1259;-79
2023/07/05 01:33:32;;;;;;;10.27;7.25;;;;;;;16.63;86.61;100006.13;692617;28;1366;-78
2023/07/05 01:34:22;;;;;;;11.80;7.60;;;;;;;16.59;86.63;100007.03;690548;28;1981;-78
2023/07/05 01:34:49;;;;;;;13.75;7.80;;;;;;;16.56;86.97;100007.06;688130;28;1665;-79
2023/07/05 01:35:19;;;;;;;12.02;7.18;;;;;;;16.56;87.25;99999.16;687456;28;1292;-78
2023/07/05 01:35:48;;;;;;;10.80;7.18;;;;;;;16.52;87.26;100002.69;687239;28;1978;-78
2023/07/05 01:36:12;;;;;;;10.75;7.50;;;;;;;16.56;87.37;100012.34;688033;28;1083;-78
2023/07/05 01:36:33;;;;;;;10.82;7.00;;;;;;;16.51;87.63;100003.59;691786;28;1569;-78
2023/07/05 01:36:54;;;;;;;10.30;6.82;;;;;;;16.55;87.45;100008.81;690676;28;1288;-78
2023/07/05 01:37:36;;;;;;;9.82;6.97;;;;;;;16.53;87.71;100007.97;684954;28;995;-78
2023/07/05 01:37:57;;;;;;;10.43;7.53;;;;;;;16.51;87.87;100003.59;687214;28;1024;-78
2023/07/05 01:38:18;;;;;;;10.55;7.38;;;;;;;16.60;87.76;100016.69;687325;28;1859;-78
2023/07/05 01:38:38;;;;;;;10.30;7.28;;;;;;;16.58;87.79;100000.03;690599;28;1057;-77
2023/07/05 01:38:59;;;;;;;9.23;7.03;;;;;;;16.56;88.13;100002.69;695212;28;1977;-78
2023/07/05 01:39:20;;;;;;;8.73;7.13;;;;;;;16.48;88.15;99995.72;692819;28;1234;-77
2023/07/05 01:39:41;;;;;;;8.57;7.40;;;;;;;16.47;88.19;100009.78;690400;28;1403;-78
2023/07/05 01:40:11;;;;;;;10.13;7.20;;;;;;;16.54;88.16;100028.13;690386;28;1031;-78
2023/07/05 01:40:32;;;;;;;10.80;7.20;;;;;;;16.52;88.44;100019.38;685106;28;1136;-77
2023/07/05 01:41:00;;;;;;;9.48;7.03;;;;;;;16.41;88.39;100011.56;684487;28;1182;-77
2023/07/05 01:41:22;;;;;;;10.48;7.15;;;;;;;16.42;88.37;100008.06;685571;28;1354;-77
2023/07/05 01:41:43;;;;;;;10.90;6.95;;;;;;;16.44;88.52;100013.31;690605;28;811;-78
2023/07/05 01:42:05;;;;;;;10.33;6.93;;;;;;;16.42;88.79;100009.84;687718;28;917;-78
2023/07/05 01:42:31;;;;;;;9.90;6.80;;;;;;;16.43;88.59;100009.78;686197;28;1205;-77
2023/07/05 01:42:56;;;;;;;9.60;6.90;;;;;;;16.43;88.75;100016.84;690036;28;1871;-77
2023/07/05 01:43:17;;;;;;;9.00;6.88;;;;;;;16.39;88.93;100000.19;690049;28;1197;-78
2023/07/05 01:43:42;;;;;;;8.68;6.57;;;;;;;16.42;89.14;100005.41;692859;28;1221;-78
2023/07/05 01:44:03;;;;;;;9.27;6.80;;;;;;;16.42;89.14;100005.41;684847;28;1264;-77
2023/07/05 01:44:24;;;;;;;10.73;6.55;;;;;;;16.40;89.14;99996.66;692562;28;1288;-78
2023/07/05 01:44:45;;;;;;;11.88;6.65;;;;;;;16.41;89.00;100003.69;690335;28;1428;-78
2023/07/05 01:45:06;;;;;;;12.20;6.77;;;;;;;16.42;89.08;99994.88;689625;28;1817;-78
2023/07/05 01:45:46;;;;;;;10.07;6.80;;;;;;;16.40;89.09;100001.94;681861;28;1470;-77
2023/07/05 01:46:16;;;;;;;8.38;6.40;;;;;;;16.47;89.21;100012.41;686491;28;2020;-78
2023/07/05 01:46:45;;;;;;;9.25;6.68;;;;;;;16.43;89.14;100007.16;690454;28;1265;-77
2023/07/05 01:47:15;;;;;;;10.43;7.13;;;;;;;16.44;89.15;99997.50;690020;28;1745;-77
2023/07/05 01:47:51;;;;;;;11.75;6.95;;;;;;;16.35;89.46;99993.19;684969;28;2323;-77
2023/07/05 01:48:39;;;;;;;9.77;6.32;;;;;;;16.36;89.76;100000.22;682371;28;1429;-77
2023/07/05 01:49:22;;;;;;;10.25;6.72;;;;;;;16.33;89.90;99997.59;689349;28;864;-77
2023/07/05 01:50:14;;;;;;;9.65;6.80;;;;;;;16.30;90.10;99995.88;690538;28;835;-77
2023/07/05 01:50:43;;;;;;;9.65;6.18;;;;;;;16.30;90.04;99990.59;682263;28;1393;-78
2023/07/05 01:51:29;;;;;;;10.52;6.10;;;;;;;16.32;90.28;99987.97;686959;28;1136;-78
2023/07/05 01:52:09;;;;;;;11.27;6.70;;;;;;;16.36;90.40;99994.97;691310;28;1260;-78
2023/07/05 01:52:45;;;;;;;11.45;7.40;;;;;;;16.33;90.37;99984.44;691165;28;1752;-77
2023/07/05 01:53:18;;;;;;;10.80;7.00;;;;;;;16.41;90.47;99994.91;687627;28;1231;-77
2023/07/05 01:54:10;;;;;;;7.95;6.20;;;;;;;16.40;90.61;99991.41;687090;28;827;-77
2023/07/05 01:55:01;;;;;;;9.48;6.75;;;;;;;16.34;90.62;99970.38;697344;28;1076;-77
2023/07/05 01:55:31;;;;;;;9.82;6.68;;;;;;;16.38;90.83;99977.38;694657;28;1220;-77
2023/07/05 01:56:01;;;;;;;10.32;6.43;;;;;;;16.51;90.52;99983.41;695288;28;788;-77
2023/07/05 01:56:30;;;;;;;11.23;6.63;;;;;;;16.43;90.36;99970.28;691761;28;1180;-78
2023/07/05 01:56:57;;;;;;;10.60;6.55;;;;;;;16.41;90.30;99964.19;690326;28;1470;-78
2023/07/05 01:57:27;;;;;;;9.60;6.60;;;;;;;16.42;90.40;99965.06;687343;28;1140;-78
2023/07/05 01:58:07;;;;;;;10.57;6.70;;;;;;;16.48;90.44;99969.41;690525;28;1201;-77
2023/07/05 01:58:32;;;;;;;11.00;6.28;;;;;;;16.42;90.52;99963.28;687427;28;2179;-77
2023/07/05 01:58:57;;;;;;;11.45;6.80;;;;;;;16.44;90.41;99960.66;692107;28;1916;-77
2023/07/05 01:59:22;;;;;;;10.70;7.15;;;;;;;16.43;90.43;99959.75;684941;28;1256;-77
2023/07/05 02:08:08;;;;;;;10.00;6.50;;;;;;;16.52;90.45;99943.00;691656;28;1583;-77
2023/07/05 02:08:29;;;;;;;8.80;6.38;;;;;;;16.56;90.45;99949.13;689482;28;1177;-77
2023/07/05 02:08:50;;;;;;;9.55;6.20;;;;;;;16.48;90.59;99938.69;690195;28;927;-77
2023/07/05 02:09:11;;;;;;;9.73;6.32;;;;;;;16.51;90.69;99935.13;689956;28;1174;-77
2023/07/05 02:09:37;;;;;;;10.10;6.50;;;;;;;16.51;90.60;99935.13;689805;28;1439;-76
2023/07/05 02:09:58;;;;;;;8.60;6.43;;;;;;;16.54;90.43;99938.59;695675;28;1943;-77
2023/07/05 02:10:19;;;;;;;8.98;6.40;;;;;;;16.48;90.52;99924.63;692312;28;1126;-76
2023/07/05 02:10:41;;;;;;;8.80;6.25;;;;;;;16.47;90.50;99934.28;693237;28;767;-77